VATroute by Dirk Trinkaus and Henning Hülsebusch

Help or FAQ needed?

Quick Search

   to   

Question or feedback?


 
Departure   Destination
LSZH ICAO LGPA
ZRH IATA PAS
Zurich Airport Paros
Zurich City Paros
Switzerland Switzerland Country Greece Greece 
--- Region ---
No details Printable version PDF version
Great circle distance: 963,8 NM
Initial true course: 125 deg    Initial true course: 125 deg
Altitude Route Remarks
FL286-FL999 DEGES Z2 XEBIX UL607 ELMEM UN606 SPL UL607 PETAK UM22 DOBAR DCT TALAS UM749 SKP B1 ATV L607 KEA L52 RAPOS VFR AFTER SKP BELOW FL154 AND AFTER RAPOS VFR Show routing Printable version (detailed)
  Find return flights [ICAO - FSBuild]

LSZH:LSZH 181220Z 18007KT 9999 FEW011 SCT014 BKN019 00/M01 Q1021 R10/5904// R14/5904// R16/6902// TEMPO 0800 SN VV003
LGPA:LGPA 181220Z 21013KT 9999 FEW025 16/06 Q1015

(For flight simulation use only! - Do not use for real life navigation!)